Time;durP1;ratioP1;P1;durP2;ratioP2;P2;SDS_P1;SDS_P2;PMS_P1;PMS_P2;Temp;Humidity;BMP_temperature;BMP_pressure;BME280_temperature;BME280_humidity;BME280_pressure;Samples;Min_cycle;Max_cycle;Signal;HPM_P1;HPM_P2
2022/01/18 00:07:38;;;;;;;12.13;7.63;;;;;;;;;;20926743;28;20075;-60
2022/01/18 00:17:42;;;;;;;15.07;7.47;;;;;;;;;;20924211;28;20088;-61
2022/01/18 00:27:44;;;;;;;14.18;7.65;;;;;;;;;;20923345;28;20128;-59
2022/01/18 00:37:53;;;;;;;13.10;8.43;;;;;;;;;;20922252;28;20052;-60
2022/01/18 00:47:56;;;;;;;14.40;8.75;;;;;;;;;;20921529;28;20056;-60
2022/01/18 00:57:58;;;;;;;19.95;10.50;;;;;;;;;;20921281;28;20048;-59
2022/01/18 01:08:00;;;;;;;13.40;9.18;;;;;;;;;;20920226;28;20049;-59
2022/01/18 01:48:53;;;;;;;16.80;9.50;;;;;;;;;;20918153;28;20045;-60
2022/01/18 01:58:55;;;;;;;13.80;9.38;;;;;;;;;;20916263;28;20053;-59
2022/01/18 02:08:58;;;;;;;11.57;8.30;;;;;;;;;;20915725;28;20095;-67
2022/01/18 02:29:20;;;;;;;18.50;10.40;;;;;;;;;;20914304;28;20060;-60
2022/01/18 02:39:24;;;;;;;15.02;9.48;;;;;;;;;;20913531;28;20516;-61
2022/01/18 02:49:28;;;;;;;15.50;9.93;;;;;;;;;;20912988;28;20056;-60
2022/01/18 03:09:47;;;;;;;13.48;8.95;;;;;;;;;;20912777;28;20107;-60
2022/01/18 03:19:51;;;;;;;14.50;10.02;;;;;;;;;;20913333;28;20099;-59
2022/01/18 03:29:53;;;;;;;13.38;8.95;;;;;;;;;;20928238;28;20445;-60
2022/01/18 03:39:59;;;;;;;14.10;8.07;;;;;;;;;;20927082;28;20048;-66
2022/01/18 03:50:03;;;;;;;17.20;9.75;;;;;;;;;;20926369;28;20056;-63
2022/01/18 04:00:07;;;;;;;12.02;8.52;;;;;;;;;;20925675;28;20059;-59
2022/01/18 04:10:10;;;;;;;13.85;7.97;;;;;;;;;;20925496;28;20041;-61
2022/01/18 04:30:35;;;;;;;13.15;9.10;;;;;;;;;;20923108;28;20045;-61
2022/01/18 04:40:42;;;;;;;11.90;8.30;;;;;;;;;;20921852;28;20118;-60
2022/01/18 04:50:44;;;;;;;12.32;7.50;;;;;;;;;;20921263;28;20060;-60
2022/01/18 05:00:49;;;;;;;11.35;7.60;;;;;;;;;;20921281;28;20603;-63
2022/01/18 05:11:14;;;;;;;13.90;7.80;;;;;;;;;;20921180;28;20045;-67
2022/01/18 05:31:58;;;;;;;12.05;8.65;;;;;;;;;;20918673;28;20045;-67
2022/01/18 05:42:00;;;;;;;11.50;7.45;;;;;;;;;;20917667;28;20045;-65
2022/01/18 05:52:03;;;;;;;12.55;7.47;;;;;;;;;;20915507;28;20165;-61
2022/01/18 06:02:31;;;;;;;12.85;7.28;;;;;;;;;;20916362;28;20051;-61
2022/01/18 06:12:32;;;;;;;12.68;7.85;;;;;;;;;;20915323;28;20103;-60
2022/01/18 06:22:34;;;;;;;11.18;7.20;;;;;;;;;;20914974;28;20109;-60
2022/01/18 06:32:38;;;;;;;12.63;7.53;;;;;;;;;;20913892;28;20509;-60
2022/01/18 06:42:40;;;;;;;10.90;7.70;;;;;;;;;;20913211;28;20098;-65
2022/01/18 06:52:42;;;;;;;11.20;7.63;;;;;;;;;;20911788;28;20061;-67
2022/01/18 07:02:45;;;;;;;12.38;7.68;;;;;;;;;;20912220;28;20045;-61
2022/01/18 07:12:47;;;;;;;12.27;7.23;;;;;;;;;;20912329;28;20409;-63
2022/01/18 07:22:49;;;;;;;17.00;8.18;;;;;;;;;;20911055;28;20051;-63
2022/01/18 07:33:14;;;;;;;18.77;9.07;;;;;;;;;;20910388;28;20049;-65
2022/01/18 07:43:38;;;;;;;14.87;6.60;;;;;;;;;;20910481;28;20041;-67
2022/01/18 07:53:59;;;;;;;11.03;6.40;;;;;;;;;;20908970;28;20559;-68
2022/01/18 08:04:15;;;;;;;11.67;7.13;;;;;;;;;;20910638;28;20045;-64
2022/01/18 08:14:17;;;;;;;13.53;7.77;;;;;;;;;;20921722;28;20087;-65
2022/01/18 08:24:23;;;;;;;19.43;10.40;;;;;;;;;;20923934;28;20049;-62
2022/01/18 08:34:30;;;;;;;25.50;14.20;;;;;;;;;;20923730;28;20053;-61
2022/01/18 08:44:37;;;;;;;23.40;11.70;;;;;;;;;;20923252;28;20045;-67
2022/01/18 08:54:45;;;;;;;19.67;11.38;;;;;;;;;;20922315;28;20519;-62
2022/01/18 09:04:54;;;;;;;28.92;15.55;;;;;;;;;;20921316;28;20075;-60
2022/01/18 09:15:06;;;;;;;21.27;11.60;;;;;;;;;;20920000;28;20398;-61
2022/01/18 09:25:17;;;;;;;22.98;11.23;;;;;;;;;;20919354;28;20190;-59
2022/01/18 09:35:20;;;;;;;14.73;9.18;;;;;;;;;;20919030;28;20502;-59
2022/01/18 09:45:23;;;;;;;18.33;9.20;;;;;;;;;;20916384;28;20048;-67
2022/01/18 09:55:25;;;;;;;14.35;9.75;;;;;;;;;;20916304;28;20378;-58
2022/01/18 10:05:30;;;;;;;15.73;7.78;;;;;;;;;;20916778;28;20045;-58
2022/01/18 10:15:32;;;;;;;18.77;8.23;;;;;;;;;;20914840;28;20511;-59
2022/01/18 10:25:35;;;;;;;15.25;9.32;;;;;;;;;;20914553;28;20501;-58
2022/01/18 10:35:58;;;;;;;15.73;10.05;;;;;;;;;;20912832;28;20049;-58
2022/01/18 10:46:13;;;;;;;16.02;8.85;;;;;;;;;;20905770;28;20056;-59
2022/01/18 10:56:17;;;;;;;20.43;9.33;;;;;;;;;;20913190;28;20438;-58
2022/01/18 11:06:19;;;;;;;12.65;8.27;;;;;;;;;;20911315;28;20087;-62
2022/01/18 11:16:26;;;;;;;18.10;8.38;;;;;;;;;;20909742;28;20132;-63
2022/01/18 11:26:28;;;;;;;18.80;9.30;;;;;;;;;;20912062;28;20095;-69
2022/01/18 11:36:35;;;;;;;17.08;9.30;;;;;;;;;;20909398;28;20049;-59
2022/01/18 11:46:40;;;;;;;16.35;9.38;;;;;;;;;;20920334;28;20173;-73
2022/01/18 11:56:42;;;;;;;15.32;9.00;;;;;;;;;;20923926;28;20053;-60
2022/01/18 12:06:45;;;;;;;15.80;9.13;;;;;;;;;;20924510;28;20138;-67
2022/01/18 12:16:50;;;;;;;16.30;9.25;;;;;;;;;;20923942;28;20102;-62
2022/01/18 12:27:00;;;;;;;11.77;7.83;;;;;;;;;;20924815;28;20109;-65
2022/01/18 12:37:08;;;;;;;15.20;7.22;;;;;;;;;;20922770;28;20114;-63
2022/01/18 12:47:10;;;;;;;13.80;7.43;;;;;;;;;;20921713;28;20049;-64
2022/01/18 12:57:12;;;;;;;13.63;7.20;;;;;;;;;;20920025;28;20052;-60
2022/01/18 13:07:14;;;;;;;13.13;6.82;;;;;;;;;;20919634;28;20048;-60
2022/01/18 13:28:01;;;;;;;8.68;5.40;;;;;;;;;;20909703;28;20087;-61
2022/01/18 13:38:04;;;;;;;8.15;4.22;;;;;;;;;;20908146;28;20476;-60
2022/01/18 13:48:08;;;;;;;6.43;3.95;;;;;;;;;;20908415;28;20106;-61
2022/01/18 13:58:10;;;;;;;6.93;3.60;;;;;;;;;;20909323;28;20045;-62
2022/01/18 14:08:12;;;;;;;5.60;2.53;;;;;;;;;;20915142;28;20512;-62
2022/01/18 14:18:14;;;;;;;9.05;6.05;;;;;;;;;;20914683;28;20136;-62
2022/01/18 14:28:17;;;;;;;6.15;4.22;;;;;;;;;;20913864;28;20088;-62
2022/01/18 14:38:19;;;;;;;7.65;4.43;;;;;;;;;;20913043;28;20128;-62
2022/01/18 14:48:21;;;;;;;6.88;4.40;;;;;;;;;;20912255;28;20048;-62
2022/01/18 14:58:24;;;;;;;4.35;3.25;;;;;;;;;;20911472;28;20053;-61
2022/01/18 15:08:26;;;;;;;6.40;3.20;;;;;;;;;;20911767;28;20049;-61
2022/01/18 15:18:28;;;;;;;7.93;3.35;;;;;;;;;;20916740;28;20052;-61
2022/01/18 15:28:30;;;;;;;6.28;2.70;;;;;;;;;;20927694;28;20191;-61
2022/01/18 15:38:32;;;;;;;6.07;2.60;;;;;;;;;;20926695;28;20045;-60
2022/01/18 15:48:37;;;;;;;13.40;4.10;;;;;;;;;;20925776;28;20049;-61
2022/01/18 15:58:39;;;;;;;13.30;3.17;;;;;;;;;;20925450;28;20382;-63
2022/01/18 16:08:41;;;;;;;8.88;4.38;;;;;;;;;;20924608;28;20513;-61
2022/01/18 16:18:43;;;;;;;9.73;3.05;;;;;;;;;;20924517;28;20049;-61
2022/01/18 16:28:46;;;;;;;3.97;2.70;;;;;;;;;;20922186;28;20135;-61
2022/01/18 16:38:49;;;;;;;9.15;3.00;;;;;;;;;;20921362;28;20052;-62
2022/01/18 16:48:51;;;;;;;13.32;7.85;;;;;;;;;;20920646;28;20041;-63
2022/01/18 16:58:53;;;;;;;10.35;4.53;;;;;;;;;;20921013;28;20052;-67
2022/01/18 17:08:56;;;;;;;10.05;4.75;;;;;;;;;;20919837;28;20053;-62
2022/01/18 17:18:58;;;;;;;13.55;7.13;;;;;;;;;;20916695;28;20049;-60
2022/01/18 17:29:00;;;;;;;8.88;5.90;;;;;;;;;;20917980;28;20098;-63
2022/01/18 17:39:07;;;;;;;11.38;6.72;;;;;;;;;;20917628;28;20509;-69
2022/01/18 17:49:09;;;;;;;18.38;8.90;;;;;;;;;;20917254;28;20053;-64
2022/01/18 17:59:11;;;;;;;17.17;9.48;;;;;;;;;;20917045;28;20048;-72
2022/01/18 18:09:13;;;;;;;17.73;8.82;;;;;;;;;;20915216;28;20053;-68
2022/01/18 18:19:16;;;;;;;19.63;11.30;;;;;;;;;;20914620;28;20040;-67
2022/01/18 18:29:18;;;;;;;39.40;22.88;;;;;;;;;;20915796;28;20064;-62
2022/01/18 18:39:38;;;;;;;18.83;8.55;;;;;;;;;;20913570;28;20045;-64
2022/01/18 18:49:41;;;;;;;21.00;8.07;;;;;;;;;;20917640;28;20489;-63
2022/01/18 18:59:56;;;;;;;15.95;6.63;;;;;;;;;;20910861;28;20057;-63
2022/01/18 19:09:57;;;;;;;14.43;6.85;;;;;;;;;;20912260;28;20466;-69
2022/01/18 19:19:59;;;;;;;10.23;4.50;;;;;;;;;;20911249;28;20061;-71
2022/01/18 19:30:01;;;;;;;10.52;5.88;;;;;;;;;;20910752;28;20060;-64
2022/01/18 19:40:07;;;;;;;24.30;14.25;;;;;;;;;;20910566;28;20547;-62
2022/01/18 19:50:11;;;;;;;8.57;4.30;;;;;;;;;;20911471;28;20048;-63
2022/01/18 20:00:15;;;;;;;9.18;4.05;;;;;;;;;;20910334;28;20101;-62
2022/01/18 20:10:17;;;;;;;19.35;8.25;;;;;;;;;;20922000;28;20045;-62
2022/01/18 20:20:20;;;;;;;7.10;3.70;;;;;;;;;;20924861;28;20440;-66
2022/01/18 20:30:22;;;;;;;8.10;4.00;;;;;;;;;;20923622;28;20128;-66
2022/01/18 20:40:29;;;;;;;12.63;4.80;;;;;;;;;;20922166;28;20041;-61
2022/01/18 20:50:31;;;;;;;11.43;4.82;;;;;;;;;;20922608;28;20398;-67
2022/01/18 21:00:33;;;;;;;7.97;4.88;;;;;;;;;;20921854;28;20053;-65
2022/01/18 21:10:36;;;;;;;10.38;5.50;;;;;;;;;;20922004;28;20408;-64
2022/01/18 21:20:39;;;;;;;10.30;5.50;;;;;;;;;;20919797;28;20055;-67
2022/01/18 21:30:41;;;;;;;14.02;6.50;;;;;;;;;;20919260;28;20444;-66
2022/01/18 21:40:43;;;;;;;8.20;4.93;;;;;;;;;;20919263;28;20102;-68
2022/01/18 21:50:45;;;;;;;10.82;5.80;;;;;;;;;;20917685;28;20059;-61
2022/01/18 22:00:48;;;;;;;12.65;8.18;;;;;;;;;;20917038;28;20060;-62
2022/01/18 22:10:50;;;;;;;11.05;5.93;;;;;;;;;;20916056;28;20511;-67
2022/01/18 22:20:52;;;;;;;10.00;4.97;;;;;;;;;;20916249;28;20041;-63
2022/01/18 22:30:54;;;;;;;7.05;4.40;;;;;;;;;;20914460;28;20105;-64
2022/01/18 22:41:11;;;;;;;7.63;4.40;;;;;;;;;;20912314;28;20068;-62
2022/01/18 22:51:13;;;;;;;10.00;4.60;;;;;;;;;;20914095;28;20132;-64
2022/01/18 23:01:15;;;;;;;9.07;5.07;;;;;;;;;;20912273;28;20103;-62
2022/01/18 23:11:18;;;;;;;7.80;4.57;;;;;;;;;;20912367;28;20057;-62
2022/01/18 23:21:21;;;;;;;8.88;4.28;;;;;;;;;;20913144;28;20041;-68
2022/01/18 23:31:23;;;;;;;6.38;4.07;;;;;;;;;;20912878;28;20049;-67
2022/01/18 23:41:34;;;;;;;11.07;6.60;;;;;;;;;;20920674;28;20056;-63
2022/01/18 23:51:36;;;;;;;9.50;5.18;;;;;;;;;;20937766;28;20498;-63
